createdAt,value
2023-12-02T00:00:25.182Z,12.39
2023-12-02T00:02:51.790Z,12.38
2023-12-02T00:05:18.354Z,12.36
2023-12-02T00:07:46.155Z,12.35
2023-12-02T00:10:13.026Z,12.35
2023-12-02T00:12:39.543Z,12.35
2023-12-02T00:15:07.087Z,12.33
2023-12-02T00:17:33.751Z,12.33
2023-12-02T00:20:00.333Z,12.32
2023-12-02T00:22:26.825Z,12.32
2023-12-02T00:24:53.457Z,12.31
2023-12-02T00:27:20.393Z,12.30
2023-12-02T00:29:46.892Z,12.30
2023-12-02T00:32:13.369Z,12.30
2023-12-02T00:34:54.225Z,12.30
2023-12-02T00:37:20.896Z,12.29
2023-12-02T00:39:47.345Z,12.28
2023-12-02T00:42:13.926Z,12.28
2023-12-02T00:44:40.452Z,12.27
2023-12-02T00:47:06.973Z,12.26
2023-12-02T00:49:33.542Z,12.26
2023-12-02T00:52:00.009Z,12.26
2023-12-02T00:54:26.546Z,12.24
2023-12-02T00:56:53.068Z,12.24
2023-12-02T00:59:19.573Z,12.23
2023-12-02T01:01:46.657Z,12.23
2023-12-02T01:04:13.183Z,12.23
2023-12-02T01:06:39.700Z,12.22
2023-12-02T01:09:06.978Z,12.21
2023-12-02T01:11:33.438Z,12.21
2023-12-02T01:13:59.975Z,12.21
2023-12-02T01:16:26.445Z,12.20
2023-12-02T01:18:52.994Z,12.21
2023-12-02T01:21:25.239Z,12.20
2023-12-02T01:23:51.791Z,12.19
2023-12-02T01:26:18.313Z,12.18
2023-12-02T01:28:44.920Z,12.19
2023-12-02T01:31:11.388Z,12.18
2023-12-02T01:33:38.151Z,12.18
2023-12-02T01:36:05.177Z,12.17
2023-12-02T01:38:31.673Z,12.16
2023-12-02T01:40:58.407Z,12.14
2023-12-02T01:43:29.206Z,12.17
2023-12-02T01:45:58.807Z,12.15
2023-12-02T01:48:27.630Z,12.16
2023-12-02T01:50:54.498Z,12.15
2023-12-02T01:53:22.119Z,12.14
2023-12-02T01:55:48.695Z,12.13
2023-12-02T01:58:15.222Z,12.13
2023-12-02T02:00:41.748Z,12.13
2023-12-02T02:03:08.323Z,12.12
2023-12-02T02:05:35.136Z,12.12
2023-12-02T02:08:01.670Z,12.11
2023-12-02T02:10:28.219Z,12.12
2023-12-02T02:12:54.698Z,12.11
2023-12-02T02:15:21.314Z,12.10
2023-12-02T02:17:47.996Z,12.09
2023-12-02T02:20:14.686Z,12.08
2023-12-02T02:22:41.390Z,12.09
2023-12-02T02:25:07.967Z,12.07
2023-12-02T02:27:34.530Z,12.08
2023-12-02T02:30:01.109Z,12.07
2023-12-02T02:32:27.600Z,12.06
2023-12-02T02:34:54.250Z,12.05
2023-12-02T02:37:20.710Z,12.05
2023-12-02T02:39:47.151Z,12.05
2023-12-02T02:42:13.658Z,12.04
2023-12-02T02:44:40.162Z,12.04
2023-12-02T02:47:06.636Z,12.03
2023-12-02T02:49:33.136Z,12.03
2023-12-02T02:51:59.761Z,12.04
2023-12-02T02:54:26.236Z,12.03
2023-12-02T02:56:52.907Z,12.02
2023-12-02T02:59:19.393Z,12.00
2023-12-02T03:01:48.334Z,12.01
2023-12-02T03:04:15.268Z,12.01
2023-12-02T03:06:41.948Z,12.01
2023-12-02T03:09:08.702Z,11.99
2023-12-02T03:11:35.197Z,11.99
2023-12-02T03:14:01.851Z,11.99
2023-12-02T03:16:28.307Z,11.98
2023-12-02T03:18:54.871Z,11.98
2023-12-02T03:21:21.449Z,11.98
2023-12-02T03:23:50.788Z,11.98
2023-12-02T03:26:18.325Z,11.96
2023-12-02T03:28:44.842Z,11.97
2023-12-02T03:31:11.361Z,11.97
2023-12-02T03:33:37.874Z,11.96
2023-12-02T03:36:07.233Z,11.96
2023-12-02T03:38:33.719Z,11.95
2023-12-02T03:41:00.881Z,11.95
2023-12-02T03:43:27.374Z,11.95
2023-12-02T03:45:53.852Z,11.95
2023-12-02T03:48:20.461Z,11.94
2023-12-02T03:50:46.970Z,11.93
2023-12-02T03:53:13.496Z,11.94
2023-12-02T03:55:40.165Z,11.94
2023-12-02T03:58:06.655Z,11.92
2023-12-02T04:00:33.265Z,11.93
2023-12-02T04:03:00.741Z,11.92
2023-12-02T04:05:27.292Z,11.92
2023-12-02T04:07:56.927Z,11.91
2023-12-02T04:10:23.432Z,11.91
2023-12-02T04:12:49.980Z,11.91
2023-12-02T04:15:16.592Z,11.91
2023-12-02T04:17:46.163Z,11.91
2023-12-02T04:20:16.140Z,11.91
2023-12-02T04:22:43.371Z,11.90
2023-12-02T04:25:09.911Z,11.90
2023-12-02T04:27:36.513Z,11.89
2023-12-02T04:30:03.265Z,11.91
2023-12-02T04:32:29.832Z,11.90
2023-12-02T04:34:56.350Z,11.89
2023-12-02T04:37:25.814Z,11.90
2023-12-02T04:39:53.142Z,11.89
2023-12-02T04:42:19.598Z,11.89
2023-12-02T04:44:46.293Z,11.89
2023-12-02T04:47:12.847Z,11.89
2023-12-02T04:49:39.322Z,11.88
2023-12-02T04:52:06.205Z,11.88
2023-12-02T04:54:35.295Z,11.88
2023-12-02T04:57:02.161Z,11.88
2023-12-02T04:59:28.638Z,11.89
2023-12-02T05:01:55.242Z,11.91
2023-12-02T05:04:21.709Z,11.93
2023-12-02T05:06:48.344Z,11.95
2023-12-02T05:09:17.302Z,11.98
2023-12-02T05:11:43.827Z,11.99
2023-12-02T05:14:10.385Z,12.01
2023-12-02T05:16:36.820Z,12.03
2023-12-02T05:19:03.423Z,12.04
2023-12-02T05:21:29.991Z,12.07
2023-12-02T05:23:56.582Z,12.09
2023-12-02T05:26:23.085Z,12.11
2023-12-02T05:28:49.605Z,12.14
2023-12-02T05:31:16.063Z,12.17
2023-12-02T05:33:42.669Z,12.19
2023-12-02T05:36:09.801Z,12.20
2023-12-02T05:38:36.288Z,12.23
2023-12-02T05:41:04.989Z,12.25
2023-12-02T05:43:31.718Z,12.27
2023-12-02T05:45:58.204Z,12.29
2023-12-02T05:48:24.787Z,12.30
2023-12-02T05:50:51.354Z,12.34
2023-12-02T05:53:17.860Z,12.36
2023-12-02T05:55:44.319Z,12.39
2023-12-02T05:58:10.781Z,12.42
2023-12-02T06:00:37.272Z,12.44
2023-12-02T06:03:04.384Z,12.47
2023-12-02T06:05:30.930Z,12.48
2023-12-02T06:07:57.415Z,12.49
2023-12-02T06:10:23.886Z,12.49
2023-12-02T06:12:50.359Z,12.52
2023-12-02T06:15:17.065Z,12.53
2023-12-02T06:17:43.627Z,12.54
2023-12-02T06:20:12.096Z,12.54
2023-12-02T06:22:38.865Z,12.53
2023-12-02T06:25:05.549Z,12.54
2023-12-02T06:27:32.143Z,12.54
2023-12-02T06:29:58.673Z,12.55
2023-12-02T06:32:25.222Z,12.54
2023-12-02T06:34:51.912Z,12.55
2023-12-02T06:37:18.424Z,12.55
2023-12-02T06:39:44.948Z,12.54
2023-12-02T06:42:12.045Z,12.55
2023-12-02T06:44:38.589Z,12.54
2023-12-02T06:47:05.123Z,12.54
2023-12-02T06:49:31.731Z,12.53
2023-12-02T06:51:58.226Z,12.53
2023-12-02T06:54:24.711Z,12.53
2023-12-02T06:56:51.345Z,12.52
2023-12-02T06:59:17.798Z,12.52
2023-12-02T07:01:44.294Z,12.52
2023-12-02T07:04:10.816Z,12.50
2023-12-02T07:06:41.069Z,12.50
2023-12-02T07:09:09.288Z,12.50
2023-12-02T07:11:36.267Z,12.50
2023-12-02T07:14:04.220Z,12.50
2023-12-02T07:16:31.041Z,12.49
2023-12-02T07:18:57.824Z,12.48
2023-12-02T07:21:24.573Z,12.49
2023-12-02T07:23:51.147Z,12.50
2023-12-02T07:26:18.981Z,12.48
2023-12-02T07:28:45.534Z,12.48
2023-12-02T07:31:15.622Z,12.48
2023-12-02T07:33:42.715Z,12.47
2023-12-02T07:36:09.651Z,12.47
2023-12-02T07:38:36.431Z,12.47
2023-12-02T07:41:03.004Z,12.48
2023-12-02T07:43:29.542Z,12.50
2023-12-02T07:45:56.076Z,12.51
2023-12-02T07:48:22.601Z,12.53
2023-12-02T07:50:49.094Z,12.55
2023-12-02T07:53:15.634Z,12.57
2023-12-02T07:55:43.839Z,12.56
2023-12-02T07:58:11.398Z,12.57
2023-12-02T08:00:38.623Z,12.60
2023-12-02T08:03:05.140Z,12.61
2023-12-02T08:08:01.028Z,12.65
2023-12-02T08:10:27.538Z,12.66
2023-12-02T08:12:54.020Z,12.68
2023-12-02T08:15:20.577Z,12.70
2023-12-02T08:17:48.043Z,12.72
2023-12-02T08:20:14.673Z,12.74
2023-12-02T08:22:41.387Z,12.76
2023-12-02T08:25:09.233Z,12.79
2023-12-02T08:27:35.713Z,12.84
2023-12-02T08:30:02.625Z,12.88
2023-12-02T08:32:29.143Z,12.95
2023-12-02T08:34:55.731Z,12.99
2023-12-02T08:37:22.264Z,13.04
2023-12-02T08:39:48.805Z,13.08
2023-12-02T08:42:15.656Z,13.12
2023-12-02T08:44:42.970Z,13.15
2023-12-02T08:47:09.492Z,13.17
2023-12-02T08:49:37.638Z,13.21
2023-12-02T08:52:04.599Z,13.23
2023-12-02T08:54:31.059Z,13.24
2023-12-02T08:56:58.802Z,13.25
2023-12-02T08:59:25.355Z,13.25
2023-12-02T09:01:51.897Z,13.24
2023-12-02T09:04:18.429Z,13.25
2023-12-02T09:06:44.909Z,13.24
2023-12-02T09:09:11.485Z,13.25
2023-12-02T09:11:38.064Z,13.24
2023-12-02T09:14:04.676Z,13.23
2023-12-02T09:16:31.634Z,13.22
2023-12-02T09:18:58.371Z,13.21
2023-12-02T09:21:41.267Z,13.19
2023-12-02T09:24:27.734Z,13.17
2023-12-02T09:26:54.207Z,13.16
2023-12-02T09:29:28.628Z,13.16
2023-12-02T09:31:55.132Z,13.14
2023-12-02T09:34:40.141Z,13.14
2023-12-02T09:37:07.334Z,13.12
2023-12-02T09:39:55.467Z,13.11
2023-12-02T09:42:22.384Z,13.10
2023-12-02T09:44:52.232Z,13.09
2023-12-02T09:47:19.669Z,13.06
2023-12-02T09:49:49.001Z,13.06
2023-12-02T09:52:15.493Z,13.04
2023-12-02T09:55:14.550Z,13.01
2023-12-02T09:57:47.327Z,13.00
2023-12-02T10:00:29.355Z,12.98
2023-12-02T10:03:23.029Z,12.96
2023-12-02T10:06:08.596Z,12.94
2023-12-02T10:08:37.874Z,12.92
2023-12-02T10:11:09.013Z,12.91
2023-12-02T10:13:37.447Z,12.90
2023-12-02T10:16:08.493Z,12.89
2023-12-02T10:18:38.604Z,12.89
2023-12-02T10:21:08.635Z,12.87
2023-12-02T10:23:44.129Z,12.85
2023-12-02T10:26:18.787Z,12.83
2023-12-02T10:28:48.958Z,12.82
2023-12-02T10:31:23.726Z,12.81
2023-12-02T10:33:58.509Z,12.80
2023-12-02T10:36:27.862Z,12.78
2023-12-02T10:39:08.115Z,12.79
2023-12-02T10:41:50.692Z,12.78
2023-12-02T10:44:21.014Z,12.79
2023-12-02T10:46:49.265Z,12.81
2023-12-02T10:49:16.270Z,12.83
2023-12-02T10:51:43.755Z,12.87
2023-12-02T10:54:13.426Z,12.92
2023-12-02T10:56:40.955Z,12.97
2023-12-02T10:59:09.253Z,13.04
2023-12-02T11:01:35.760Z,13.13
2023-12-02T11:04:11.210Z,13.22
2023-12-02T11:06:41.906Z,13.32
2023-12-02T11:09:15.286Z,13.43
2023-12-02T11:12:03.479Z,13.53
2023-12-02T11:14:34.312Z,13.63
2023-12-02T11:17:00.769Z,13.71
2023-12-02T11:19:43.601Z,13.80
2023-12-02T11:22:13.178Z,13.86
2023-12-02T11:24:42.727Z,13.92
2023-12-02T11:27:15.762Z,13.96
2023-12-02T11:29:56.407Z,14.00
2023-12-02T11:32:39.326Z,14.05
2023-12-02T11:35:11.724Z,14.09
2023-12-02T11:37:44.514Z,14.12
2023-12-02T11:40:13.201Z,14.14
2023-12-02T11:42:46.284Z,14.18
2023-12-02T11:45:23.624Z,14.20
2023-12-02T11:47:53.263Z,14.22
2023-12-02T11:50:33.406Z,14.23
2023-12-02T11:53:06.130Z,14.24
2023-12-02T11:55:53.913Z,14.24
2023-12-02T11:58:23.504Z,14.25
2023-12-02T12:00:53.139Z,14.26
2023-12-02T12:03:28.572Z,14.24
2023-12-02T12:05:57.852Z,14.25
2023-12-02T12:08:31.054Z,14.24
2023-12-02T12:10:57.775Z,14.23
2023-12-02T12:13:27.024Z,14.22
2023-12-02T12:15:54.222Z,14.21
2023-12-02T12:18:22.142Z,14.18
2023-12-02T12:20:56.281Z,14.17
2023-12-02T12:23:29.509Z,14.15
2023-12-02T12:25:56.113Z,14.12
2023-12-02T12:28:22.788Z,14.10
2023-12-02T12:30:49.624Z,14.08
2023-12-02T12:33:18.974Z,14.04
2023-12-02T12:35:45.721Z,14.04
2023-12-02T12:38:12.316Z,14.01
2023-12-02T12:40:40.968Z,13.99
2023-12-02T12:43:14.222Z,13.98
2023-12-02T12:45:41.061Z,13.95
2023-12-02T12:48:07.988Z,13.95
2023-12-02T12:50:36.996Z,13.93
2023-12-02T12:53:13.230Z,13.91
2023-12-02T12:55:44.550Z,13.89
2023-12-02T12:58:18.364Z,13.87
2023-12-02T13:00:48.892Z,13.85
2023-12-02T13:03:27.861Z,13.84
2023-12-02T13:06:03.784Z,13.82
2023-12-02T13:08:44.872Z,13.81
2023-12-02T13:11:22.200Z,13.78
2023-12-02T13:14:02.109Z,13.76
2023-12-02T13:16:30.250Z,13.74
2023-12-02T13:19:00.351Z,13.73
2023-12-02T13:21:27.095Z,13.70
2023-12-02T13:23:53.855Z,13.70
2023-12-02T13:26:29.283Z,13.67
2023-12-02T13:28:56.458Z,13.68
2023-12-02T13:31:23.386Z,13.64
2023-12-02T13:34:08.918Z,13.63
2023-12-02T13:36:40.644Z,13.62
2023-12-02T13:39:07.256Z,13.61
2023-12-02T13:41:48.254Z,13.60
2023-12-02T13:44:17.911Z,13.59
2023-12-02T13:47:06.682Z,13.56
2023-12-02T13:49:33.175Z,13.55
2023-12-02T13:52:11.669Z,13.55
2023-12-02T13:54:38.435Z,13.54
2023-12-02T13:57:17.205Z,13.52
2023-12-02T13:59:46.465Z,13.52
2023-12-02T14:02:12.907Z,13.50
2023-12-02T14:04:39.429Z,13.50
2023-12-02T14:07:18.341Z,13.49
2023-12-02T14:09:45.044Z,13.49
2023-12-02T14:12:17.633Z,13.46
2023-12-02T14:14:56.277Z,13.46
2023-12-02T14:17:32.213Z,13.45
2023-12-02T14:20:11.642Z,13.44
2023-12-02T14:22:38.080Z,13.43
2023-12-02T14:25:18.911Z,13.43
2023-12-02T14:27:54.261Z,13.41
2023-12-02T14:30:30.902Z,13.41
2023-12-02T14:33:06.980Z,13.40
2023-12-02T14:35:39.329Z,13.40
2023-12-02T14:38:27.620Z,13.39
2023-12-02T14:40:54.101Z,13.38
2023-12-02T14:43:25.300Z,13.38
2023-12-02T14:45:52.271Z,13.38
2023-12-02T14:48:21.421Z,13.37
2023-12-02T14:50:49.100Z,13.36
2023-12-02T14:53:18.350Z,13.35
2023-12-02T14:55:44.902Z,13.35
2023-12-02T14:58:25.004Z,13.35
2023-12-02T15:00:55.164Z,13.34
2023-12-02T15:03:24.759Z,13.33
2023-12-02T15:05:51.348Z,13.33
2023-12-02T15:08:18.281Z,13.32
2023-12-02T15:10:46.409Z,13.32
2023-12-02T15:13:13.085Z,13.32
2023-12-02T15:15:45.198Z,13.31
2023-12-02T15:18:17.219Z,13.31
2023-12-02T15:20:48.859Z,13.31
2023-12-02T15:23:18.466Z,13.29
2023-12-02T15:25:51.834Z,13.29
2023-12-02T15:28:23.573Z,13.29
2023-12-02T15:30:50.060Z,13.27
2023-12-02T15:33:17.325Z,13.27
2023-12-02T15:35:45.093Z,13.27
2023-12-02T15:38:14.685Z,13.27
2023-12-02T15:40:41.496Z,13.27
2023-12-02T15:43:08.886Z,13.25
2023-12-02T15:45:35.575Z,13.26
2023-12-02T15:48:02.266Z,13.26
2023-12-02T15:50:30.333Z,13.24
2023-12-02T15:52:57.125Z,13.24
2023-12-02T15:55:27.028Z,13.25
2023-12-02T15:57:53.565Z,13.25
2023-12-02T16:00:25.127Z,13.24
2023-12-02T16:02:51.776Z,13.25
2023-12-02T16:05:18.378Z,13.23
2023-12-02T16:07:45.178Z,13.24
2023-12-02T16:10:14.703Z,13.23
2023-12-02T16:12:49.037Z,13.23
2023-12-02T16:15:16.364Z,13.23
2023-12-02T16:17:43.103Z,13.23
2023-12-02T16:20:12.716Z,13.22
2023-12-02T16:22:39.232Z,13.22
2023-12-02T16:25:09.366Z,13.20
2023-12-02T16:27:36.135Z,13.20
2023-12-02T16:30:04.228Z,13.19
2023-12-02T16:32:31.995Z,13.18
2023-12-02T16:34:58.622Z,13.18
2023-12-02T16:37:25.389Z,13.17
2023-12-02T16:39:52.713Z,13.17
2023-12-02T16:42:19.321Z,13.16
2023-12-02T16:44:45.990Z,13.15
2023-12-02T16:47:38.689Z,13.15
2023-12-02T16:50:13.037Z,13.14
2023-12-02T16:52:39.468Z,13.14
2023-12-02T16:55:10.447Z,13.14
2023-12-02T16:57:38.935Z,13.14
2023-12-02T17:00:05.833Z,13.13
2023-12-02T17:02:35.224Z,13.13
2023-12-02T17:05:03.595Z,13.13
2023-12-02T17:07:30.416Z,13.12
2023-12-02T17:09:56.999Z,13.13
2023-12-02T17:12:23.808Z,13.12
2023-12-02T17:14:50.295Z,13.13
2023-12-02T17:17:23.711Z,13.13
2023-12-02T17:19:50.942Z,13.13
2023-12-02T17:22:18.706Z,13.14
2023-12-02T17:24:46.279Z,13.15
2023-12-02T17:27:15.346Z,13.15
2023-12-02T17:29:42.284Z,13.15
2023-12-02T17:32:09.894Z,13.16
2023-12-02T17:34:38.052Z,13.15
2023-12-02T17:37:04.932Z,13.16
2023-12-02T17:39:31.493Z,13.16
2023-12-02T17:41:58.091Z,13.17
2023-12-02T17:44:24.641Z,13.16
2023-12-02T17:46:53.527Z,13.17
2023-12-02T17:49:21.212Z,13.17
2023-12-02T17:51:48.003Z,13.18
2023-12-02T17:54:14.686Z,13.18
2023-12-02T17:56:41.649Z,13.18
2023-12-02T17:59:08.475Z,13.18
2023-12-02T18:01:35.450Z,13.18
2023-12-02T18:04:01.958Z,13.18
2023-12-02T18:06:28.552Z,13.18
2023-12-02T18:08:55.330Z,13.18
2023-12-02T18:11:21.923Z,13.18
2023-12-02T18:13:48.403Z,13.19
2023-12-02T18:16:15.055Z,13.18
2023-12-02T18:18:43.101Z,13.19
2023-12-02T18:21:09.853Z,13.18
2023-12-02T18:23:39.297Z,13.18
2023-12-02T18:26:06.953Z,13.16
2023-12-02T18:28:33.457Z,13.17
2023-12-02T18:31:00.224Z,13.17
2023-12-02T18:33:26.872Z,13.16
2023-12-02T18:35:53.476Z,13.17
2023-12-02T18:38:20.131Z,13.16
2023-12-02T18:40:46.626Z,13.16
2023-12-02T18:43:13.146Z,13.16
2023-12-02T18:45:40.021Z,13.16
2023-12-02T18:48:06.850Z,13.15
2023-12-02T18:50:33.407Z,13.16
2023-12-02T18:52:59.898Z,13.15
2023-12-02T18:55:26.415Z,13.13
2023-12-02T18:57:52.950Z,13.14
2023-12-02T19:00:19.574Z,13.14
2023-12-02T19:02:46.239Z,13.14
2023-12-02T19:05:12.816Z,13.14
2023-12-02T19:07:39.553Z,13.12
2023-12-02T19:10:06.248Z,13.13
2023-12-02T19:12:35.616Z,13.14
2023-12-02T19:15:02.266Z,13.12
2023-12-02T19:17:28.907Z,13.13
2023-12-02T19:19:55.556Z,13.12
2023-12-02T19:22:24.463Z,13.13
2023-12-02T19:24:51.053Z,13.12
2023-12-02T19:27:17.597Z,13.12
2023-12-02T19:29:44.062Z,13.11
2023-12-02T19:32:10.900Z,13.11
2023-12-02T19:34:38.255Z,13.11
2023-12-02T19:37:05.319Z,13.10
2023-12-02T19:39:32.324Z,13.10
2023-12-02T19:41:59.164Z,13.10
2023-12-02T19:44:25.673Z,13.10
2023-12-02T19:46:58.074Z,13.10
2023-12-02T19:49:25.281Z,13.09
2023-12-02T19:51:52.417Z,13.10
2023-12-02T19:54:19.218Z,13.09
2023-12-02T19:56:49.882Z,13.08
2023-12-02T19:59:17.061Z,13.10
2023-12-02T20:01:43.564Z,13.09
2023-12-02T20:04:10.134Z,13.09
2023-12-02T20:06:36.763Z,13.09
2023-12-02T20:09:04.710Z,13.09
2023-12-02T20:11:44.145Z,13.09
2023-12-02T20:14:12.645Z,13.10
2023-12-02T20:16:39.645Z,13.09
2023-12-02T20:19:06.153Z,13.09
2023-12-02T20:21:32.688Z,13.10
2023-12-02T20:23:59.384Z,13.09
2023-12-02T20:26:26.178Z,13.10
2023-12-02T20:28:53.122Z,13.10
2023-12-02T20:31:19.567Z,13.10
2023-12-02T20:33:46.212Z,13.09
2023-12-02T20:36:13.776Z,13.09
2023-12-02T20:38:40.522Z,13.10
2023-12-02T20:41:07.487Z,13.10
2023-12-02T20:43:38.199Z,13.11
2023-12-02T20:46:08.097Z,13.10
2023-12-02T20:48:35.416Z,13.10
2023-12-02T20:51:02.514Z,13.09
2023-12-02T20:53:29.649Z,13.08
2023-12-02T20:55:57.633Z,13.07
2023-12-02T20:58:24.276Z,13.07
2023-12-02T21:00:50.965Z,13.05
2023-12-02T21:03:17.648Z,13.04
2023-12-02T21:05:44.198Z,13.04
2023-12-02T21:08:10.808Z,13.03
2023-12-02T21:10:40.011Z,13.01
2023-12-02T21:13:07.146Z,13.00
2023-12-02T21:15:42.676Z,12.99
2023-12-02T21:18:11.082Z,12.99
2023-12-02T21:20:37.665Z,12.98
2023-12-02T21:23:04.191Z,12.96
2023-12-02T21:25:30.758Z,12.95
2023-12-02T21:27:57.287Z,12.95
2023-12-02T21:30:29.014Z,12.94
2023-12-02T21:32:56.270Z,12.92
2023-12-02T21:35:22.891Z,12.92
2023-12-02T21:37:51.786Z,12.91
2023-12-02T21:40:19.747Z,12.90
2023-12-02T21:42:49.558Z,12.89
2023-12-02T21:45:28.328Z,12.88
2023-12-02T21:47:56.515Z,12.85
2023-12-02T21:50:22.994Z,12.85
2023-12-02T21:52:53.260Z,12.84
2023-12-02T21:55:25.819Z,12.84
2023-12-02T21:57:52.301Z,12.82
2023-12-02T22:00:22.279Z,12.81
2023-12-02T22:02:48.792Z,12.80
2023-12-02T22:05:15.587Z,12.80
2023-12-02T22:07:42.120Z,12.79
2023-12-02T22:10:30.694Z,12.77
2023-12-02T22:12:57.536Z,12.76
2023-12-02T22:15:39.051Z,12.75
2023-12-02T22:18:06.879Z,12.74
2023-12-02T22:20:33.990Z,12.73
2023-12-02T22:23:02.101Z,12.72
2023-12-02T22:25:30.275Z,12.70
2023-12-02T22:27:59.548Z,12.69
2023-12-02T22:30:26.209Z,12.68
2023-12-02T22:33:00.211Z,12.68
2023-12-02T22:35:28.176Z,12.67
2023-12-02T22:37:57.748Z,12.66
2023-12-02T22:40:30.818Z,12.65
2023-12-02T22:43:00.584Z,12.64
2023-12-02T22:45:27.136Z,12.63
2023-12-02T22:47:53.730Z,12.62
2023-12-02T22:50:20.290Z,12.62
2023-12-02T22:52:47.057Z,12.62
2023-12-02T22:55:36.651Z,12.61
2023-12-02T22:58:03.205Z,12.60
2023-12-02T23:00:40.235Z,12.61
2023-12-02T23:03:07.417Z,12.60
2023-12-02T23:05:34.216Z,12.60
2023-12-02T23:08:01.708Z,12.60
2023-12-02T23:10:34.712Z,12.60
2023-12-02T23:13:01.541Z,12.59
2023-12-02T23:15:35.606Z,12.59
2023-12-02T23:18:02.838Z,12.58
2023-12-02T23:20:30.661Z,12.58
2023-12-02T23:22:57.496Z,12.58
2023-12-02T23:25:25.847Z,12.58
2023-12-02T23:27:52.457Z,12.57
2023-12-02T23:30:19.491Z,12.57
2023-12-02T23:32:46.432Z,12.57
2023-12-02T23:35:18.433Z,12.56
2023-12-02T23:37:45.057Z,12.56
2023-12-02T23:40:19.067Z,12.55
2023-12-02T23:42:45.722Z,12.55
2023-12-02T23:45:13.361Z,12.55
2023-12-02T23:47:41.102Z,12.54
2023-12-02T23:50:08.046Z,12.53
2023-12-02T23:52:34.576Z,12.53
2023-12-02T23:55:01.477Z,12.53
2023-12-02T23:57:30.191Z,12.53
2023-12-02T23:59:56.902Z,12.51
